Latest Weather Observations for Wangaratta

IDV60801

Issued at 11:03 am EST Friday 26 May 2017 (issued every 30 minutes, with the page automatically refreshed every 10 minutes)

About weather observations | Map of weather stations | Latest weather observations for VIC | Other Formats
Station Details ID: 082138 Name: WANGARATTA AERO Lat: -36.42 Lon: 146.31 Height: 152.6 m
Data from the previous 72 hours. | See also: Recent months at Wangaratta
Date/Time
EST
Temp
°C
App
Temp
°C
Dew
Point
°C
Rel
Hum
%
Delta-T
°C
Wind Press
QNH
hPa
Press
MSL
hPa
Rain since
9am
mm
Dir  Spd
km/h
Gust
km/h
Spd
kts
Gust
kts
26/11:00am 12.7 11.4 11.1 90 0.8 N 9 11 5 6 1023.4 1023.6 0.0
26/10:30am 12.5 10.9 11.4 93 0.6 N 11 13 6 7 1023.6 1023.8 0.0
26/10:00am 12.0 11.2 11.8 99 0.1 N 7 11 4 6 1023.6 1023.8 0.0
26/09:37am 11.7 12.2 11.7 100 0.0 CALM 0 0 0 0 1023.8 1024.0 0.0
26/09:30am 11.5 12.0 11.5 100 0.0 CALM 0 0 0 0 1023.8 1024.0 0.0
26/09:13am 11.3 11.7 11.3 100 0.0 CALM 0 0 0 0 1023.8 1024.0 0.0
26/09:00am 11.2 11.6 11.2 100 0.0 CALM 0 0 0 0 1023.8 1024.0 1.0
26/08:30am 10.6 10.8 10.6 100 0.0 CALM 0 0 0 0 1023.4 1023.6 1.0
26/08:27am 10.7 10.9 10.7 100 0.0 CALM 0 0 0 0 1023.4 1023.6 1.0
26/08:17am 10.5 10.7 10.5 100 0.0 CALM 0 0 0 0 1023.2 1023.4 1.0
26/08:00am 10.0 10.1 10.0 100 0.0 CALM 0 0 0 0 1023.2 1023.4 1.0
26/07:31am 9.4 9.3 9.4 100 0.0 CALM 0 0 0 0 1023.0 1023.2 1.0
26/07:30am 9.4 9.3 9.4 100 0.0 CALM 0 0 0 0 1023.0 1023.2 1.0
26/07:00am 9.4 9.3 9.4 100 0.0 CALM 0 0 0 0 1022.7 1022.9 1.0
26/06:30am 10.4 10.6 10.4 100 0.0 CALM 0 0 0 0 1022.4 1022.5 1.0
26/06:27am 10.4 10.6 10.4 100 0.0 CALM 0 0 0 0 1022.5 1022.6 1.0
26/06:00am 10.7 10.9 10.7 100 0.0 CALM 0 0 0 0 1022.2 1022.3 1.0
26/05:30am 10.6 10.8 10.6 100 0.0 CALM 0 0 0 0 1021.9 1022.0 1.0
26/05:15am 10.7 10.9 10.7 100 0.0 CALM 0 2 0 1 1021.9 1022.0 1.0
26/05:12am 10.7 10.9 10.7 100 0.0 CALM 0 0 0 0 1022.0 1022.1 1.0
26/05:00am 10.8 11.1 10.8 100 0.0 CALM 0 0 0 0 1021.9 1022.0 0.8
26/04:49am 10.8 11.1 10.8 100 0.0 CALM 0 0 0 0 1021.8 1021.9 0.8
26/04:30am 10.8 11.1 10.8 100 0.0 CALM 0 0 0 0 1021.8 1021.9 0.6
26/04:00am 10.7 10.6 10.7 100 0.0 E 2 6 1 3 1021.7 1021.8 0.6
26/03:35am 10.7 9.8 10.7 100 0.0 ESE 6 7 3 4 1021.7 1021.8 0.6
26/03:30am 10.7 9.8 10.7 100 0.0 E 6 9 3 5 1021.8 1021.9 0.6
26/03:00am 10.9 10.1 10.9 100 0.0 ENE 6 7 3 4 1021.8 1021.9 0.6
26/02:36am 10.9 11.2 10.9 100 0.0 CALM 0 7 0 4 1021.9 1022.0 0.6
26/02:30am 10.9 11.2 10.9 100 0.0 CALM 0 0 0 0 1021.9 1022.0 0.6
26/02:00am 11.0 11.3 10.8 99 0.1 CALM 0 0 0 0 1021.9 1022.0 0.6
26/01:30am 11.0 11.3 10.8 99 0.1 CALM 0 0 0 0 1022.0 1022.1 0.4
26/01:00am 11.1 11.4 10.9 99 0.1 CALM 0 2 0 1 1021.8 1021.9 0.4
26/12:54am 11.0 11.3 10.8 99 0.1 CALM 0 0 0 0 1021.9 1022.0 0.4
26/12:40am 11.0 11.3 10.8 99 0.1 CALM 0 2 0 1 1022.1 1022.2 0.4
26/12:30am 11.0 10.1 10.8 99 0.1 SSW 6 7 3 4 1022.2 1022.3 0.2
26/12:00am 11.1 11.4 10.9 99 0.1 CALM 0 0 0 0 1022.1 1022.2 0.2
 
Date/Time
EST
Temp
°C
App
Temp
°C
Dew
Point
°C
Rel
Hum
%
Delta-T
°C
Wind Press
QNH
hPa
Press
MSL
hPa
Rain since
9am
mm
Dir  Spd
km/h
Gust
km/h
Spd
kts
Gust
kts
25/11:30pm 11.2 11.5 10.9 98 0.2 CALM 0 0 0 0 1022.2 1022.3 0.2
25/11:00pm 11.3 10.9 11.0 98 0.2 NE 4 6 2 3 1022.3 1022.4 0.2
25/10:30pm 11.3 10.4 10.8 97 0.3 NE 6 7 3 4 1022.2 1022.3 0.2
25/10:00pm 11.5 11.4 10.9 96 0.3 NNE 2 6 1 3 1022.3 1022.4 0.2
25/09:30pm 11.5 10.4 10.7 95 0.4 N 7 9 4 5 1022.3 1022.4 0.2
25/09:00pm 11.5 11.7 10.7 95 0.4 CALM 0 0 0 0 1022.2 1022.3 0.2
25/08:30pm 11.5 10.6 10.7 95 0.4 NNE 6 7 3 4 1022.2 1022.3 0.2
25/08:00pm 11.7 10.6 10.8 94 0.5 N 7 9 4 5 1022.1 1022.2 0.2
25/07:30pm 11.5 10.4 10.6 94 0.5 NW 7 9 4 5 1022.4 1022.5 0.2
25/07:00pm 11.8 10.9 10.5 92 0.7 N 6 7 3 4 1022.1 1022.2 0.2
25/06:30pm 11.8 10.6 10.4 91 0.7 NNE 7 9 4 5 1021.9 1022.0 0.2
25/06:00pm 12.1 10.6 10.5 90 0.8 N 9 11 5 6 1022.0 1022.1 0.2
25/05:30pm 12.2 10.6 10.3 88 1.0 N 9 11 5 6 1021.8 1021.9 0.2
25/05:00pm 12.4 10.8 10.3 87 1.1 N 9 13 5 7 1021.7 1021.8 0.2
25/04:30pm 12.6 10.6 10.1 85 1.3 NNW 11 15 6 8 1021.7 1021.8 0.2
25/04:00pm 13.3 11.7 10.1 81 1.7 NNW 9 9 5 5 1021.7 1021.8 0.2
25/03:30pm 13.7 12.3 9.0 73 2.4 W 6 9 3 5 1021.7 1021.8 0.2
25/03:00pm 13.6 11.7 9.1 74 2.3 W 9 15 5 8 1021.6 1021.7 0.2
25/02:30pm 13.3 11.7 10.1 81 1.7 W 9 11 5 6 1021.7 1021.8 0.2
25/02:00pm 12.8 11.9 10.5 86 1.2 N 6 9 3 5 1021.8 1021.9 0.2
25/01:30pm 12.2 11.5 11.4 95 0.4 N 6 9 3 5 1022.1 1022.2 0.2
25/01:25pm 12.0 11.2 11.2 95 0.4 N 6 7 3 4 1022.2 1022.3 0.2
25/01:08pm 11.7 10.3 10.9 95 0.4 N 9 11 5 6 1022.4 1022.5 0.2
25/01:00pm 11.8 10.9 11.2 96 0.3 NNW 7 9 4 5 1022.4 1022.5 0.2
25/12:35pm 11.8 10.9 10.5 92 0.7 N 6 9 3 5 1022.6 1022.8 0.0
25/12:30pm 11.8 10.8 10.2 90 0.8 NE 6 9 3 5 1022.7 1022.9 0.0
25/12:26pm 11.9 10.9 10.3 90 0.8 ENE 6 9 3 5 1022.7 1022.9 0.0
25/12:00pm 11.7 11.1 10.3 91 0.7 NNE 4 7 2 4 1023.0 1023.2 0.0
25/11:51am 11.3 10.3 10.4 94 0.5 NE 6 9 3 5 1023.2 1023.4 0.0
25/11:33am 10.6 9.8 9.8 95 0.4 N 4 7 2 4 1023.5 1023.7 0.0
25/11:30am 10.5 9.3 9.7 95 0.4 NNE 6 7 3 4 1023.6 1023.8 0.0
25/11:00am 9.7 8.5 9.6 99 0.1 N 6 7 3 4 1023.8 1024.0 0.0
25/10:30am 8.7 7.3 8.7 100 0.0 NNE 6 7 3 4 1023.7 1023.9 0.0
25/10:00am 8.1 6.5 8.1 100 0.0 N 6 7 3 4 1023.7 1023.9 0.0
25/09:41am 7.8 7.3 7.8 100 0.0 CALM 0 0 0 0 1023.6 1023.8 0.0
25/09:30am 7.7 7.2 7.7 100 0.0 CALM 0 0 0 0 1023.5 1023.7 0.0
25/09:00am 7.4 6.8 7.4 100 0.0 CALM 0 0 0 0 1023.2 1023.4 0.0
25/08:30am 7.1 6.4 7.1 100 0.0 CALM 0 0 0 0 1023.0 1023.2 0.0
25/08:00am 6.8 6.1 6.8 100 0.0 CALM 0 0 0 0 1022.8 1023.0 0.0
25/07:30am 6.7 5.9 6.7 100 0.0 CALM 0 0 0 0 1022.7 1022.9 0.0
25/07:00am 6.8 6.1 6.8 100 0.0 CALM 0 0 0 0 1022.3 1022.4 0.0
25/06:30am 6.8 6.1 6.8 100 0.0 CALM 0 0 0 0 1022.1 1022.2 0.0
25/06:00am 6.9 6.2 6.9 100 0.0 CALM 0 0 0 0 1021.7 1021.8 0.0
25/05:30am 7.0 6.3 7.0 100 0.0 CALM 0 0 0 0 1021.5 1021.6 0.0
25/05:11am 6.9 6.2 6.8 99 0.0 CALM 0 0 0 0 1021.4 1021.5 0.0
25/05:07am 6.9 6.2 6.9 100 0.0 CALM 0 0 0 0 1021.4 1021.5 0.0
25/05:00am 6.9 6.2 6.9 100 0.0 CALM 0 0 0 0 1021.4 1021.5 0.0
25/04:53am 6.9 6.2 6.9 100 0.0 CALM 0 0 0 0 1021.4 1021.5 0.0
25/04:30am 7.1 6.4 7.1 100 0.0 CALM 0 0 0 0 1021.3 1021.4 0.0
25/04:26am 7.0 6.3 6.9 99 0.0 CALM 0 0 0 0 1021.3 1021.4 0.0
25/04:00am 6.7 5.2 6.6 99 0.0 SSE 4 9 2 5 1021.1 1021.2 0.0
25/03:45am 6.4 4.4 6.3 99 0.0 SSE 6 7 3 4 1021.0 1021.1 0.0
25/03:30am 6.0 5.1 5.9 99 0.0 CALM 0 6 0 3 1020.9 1021.0 0.0
25/03:00am 5.8 4.8 5.7 99 0.0 CALM 0 0 0 0 1020.9 1021.0 0.0
25/02:49am 5.8 4.8 5.7 99 0.0 CALM 0 0 0 0 1021.0 1021.1 0.0
25/02:32am 6.1 4.4 6.0 99 0.0 ESE 4 6 2 3 1021.0 1021.1 0.0
25/02:30am 6.1 4.4 6.0 99 0.0 ESE 4 7 2 4 1021.0 1021.1 0.0
25/02:00am 6.5 5.7 6.4 99 0.0 CALM 0 0 0 0 1021.0 1021.1 0.0
25/01:30am 6.3 4.3 6.2 99 0.0 WNW 6 9 3 5 1021.0 1021.1 0.0
25/01:28am 6.2 4.2 6.1 99 0.0 WNW 6 9 3 5 1021.0 1021.1 0.0
25/01:09am 6.1 5.2 6.0 99 0.0 CALM 0 6 0 3 1020.9 1021.0 0.0
25/01:01am 6.1 4.8 6.0 99 0.0 WNW 2 7 1 4 1020.9 1021.0 0.0
25/01:00am 6.0 4.7 5.9 99 0.0 WNW 2 7 1 4 1021.0 1021.1 0.0
25/12:42am 5.3 4.2 5.2 99 0.0 CALM 0 2 0 1 1021.0 1021.1 0.0
25/12:30am 5.0 2.7 4.9 99 0.0 E 6 7 3 4 1021.2 1021.3 0.0
25/12:00am 5.4 4.3 5.3 99 0.0 CALM 0 6 0 3 1021.2 1021.3 0.0
 
Date/Time
EST
Temp
°C
App
Temp
°C
Dew
Point
°C
Rel
Hum
%
Delta-T
°C
Wind Press
QNH
hPa
Press
MSL
hPa
Rain since
9am
mm
Dir  Spd
km/h
Gust
km/h
Spd
kts
Gust
kts
24/11:57pm 5.3 3.8 5.2 99 0.0 ENE 2 6 1 3 1021.2 1021.3 0.0
24/11:30pm 6.1 4.0 5.8 98 0.1 E 6 9 3 5 1021.1 1021.2 0.0
24/11:08pm 7.2 6.5 6.9 98 0.1 CALM 0 0 0 0 1020.9 1021.0 0.0
24/11:00pm 7.7 7.1 7.4 98 0.1 CALM 0 0 0 0 1020.8 1020.9 0.0
24/10:30pm 7.6 6.9 7.0 96 0.3 CALM 0 0 0 0 1020.9 1021.0 0.0
24/10:00pm 8.0 7.3 6.9 93 0.5 CALM 0 0 0 0 1020.8 1020.9 0.0
24/09:30pm 9.3 8.9 8.1 92 0.6 CALM 0 0 0 0 1020.6 1020.7 0.0
24/09:00pm 9.8 8.6 7.9 88 0.9 W 4 9 2 5 1020.5 1020.6 0.0
24/08:30pm 10.5 8.5 8.6 88 0.9 WNW 9 15 5 8 1020.2 1020.3 0.0
24/08:00pm 11.1 9.2 9.2 88 1.0 WNW 9 13 5 7 1020.0 1020.1 0.0
24/07:30pm 10.7 10.0 8.6 87 1.0 N 2 9 1 5 1019.7 1019.8 0.0
24/07:00pm 11.3 10.6 8.5 83 1.4 WSW 2 6 1 3 1019.5 1019.6 0.0
24/06:30pm 12.7 10.9 9.3 80 1.7 WNW 9 9 5 5 1019.3 1019.4 0.0
24/06:00pm 12.6 10.7 9.2 80 1.7 WNW 9 9 5 5 1019.2 1019.3 0.0
24/05:30pm 13.0 11.1 9.1 77 2.0 WNW 9 11 5 6 1018.9 1019.0 0.0
24/05:00pm 13.8 12.0 9.3 74 2.3 WNW 9 9 5 5 1018.2 1018.4 0.0
24/04:30pm 14.2 12.9 9.8 75 2.3 WNW 7 9 4 5 1018.0 1018.2 0.0
24/04:00pm 14.8 12.3 9.6 71 2.7 W 13 20 7 11 1017.8 1018.0 0.0
24/03:30pm 14.5 11.5 9.3 71 2.7 WNW 15 19 8 10 1017.3 1017.5 0.0
24/03:00pm 15.4 12.6 10.0 70 2.8 WNW 15 20 8 11 1017.1 1017.3 0.0
24/02:30pm 14.7 11.4 9.7 72 2.6 W 17 24 9 13 1017.1 1017.3 0.0
24/02:00pm 13.9 10.3 9.7 76 2.2 WNW 19 24 10 13 1017.2 1017.4 0.0
24/01:30pm 14.8 11.6 10.0 73 2.5 W 17 24 9 13 1017.1 1017.3 0.0
24/01:00pm 14.0 10.1 9.6 75 2.3 W 20 30 11 16 1016.9 1017.0 0.0
24/12:30pm 14.5 11.3 9.9 74 2.4 W 17 24 9 13 1017.1 1017.3 0.0
24/12:00pm 13.4 9.2 9.6 78 2.0 W 22 28 12 15 1017.3 1017.5 0.0
24/11:30am 13.3 9.7 9.7 79 1.9 W 19 22 10 12 1017.6 1017.8 0.0
24/11:00am 13.2 10.4 10.0 81 1.7 W 15 20 8 11 1017.6 1017.8 0.0
24/10:30am 12.8 9.1 9.6 81 1.6 W 19 26 10 14 1017.6 1017.8 0.0
24/10:00am 12.9 10.6 10.3 84 1.4 WSW 13 20 7 11 1017.3 1017.5 0.0
24/09:30am 12.3 9.4 9.5 83 1.4 WSW 15 20 8 11 1017.2 1017.4 0.0
24/09:00am 11.9 9.2 8.9 82 1.5 WNW 13 20 7 11 1017.0 1017.1 2.4
24/08:30am 11.7 9.9 9.3 85 1.2 NW 9 19 5 10 1016.6 1016.7 2.4
24/08:00am 10.9 8.3 9.2 89 0.9 NW 13 19 7 10 1016.2 1016.3 2.4
24/07:30am 10.9 7.9 9.2 89 0.9 NW 15 20 8 11 1015.9 1016.0 2.4
24/07:00am 10.7 8.5 9.3 91 0.7 NW 11 17 6 9 1015.5 1015.6 2.4
24/06:30am 11.0 9.2 9.4 90 0.8 NW 9 13 5 7 1015.2 1015.3 2.4
24/06:00am 11.8 10.4 9.7 87 1.1 NNW 7 11 4 6 1015.0 1015.1 2.4
24/05:30am 12.1 10.1 10.3 89 0.9 NNW 11 17 6 9 1014.7 1014.8 2.4
24/05:00am 12.1 11.6 10.7 91 0.7 WNW 4 7 2 4 1014.3 1014.4 2.4
24/04:30am 13.0 12.1 11.4 90 0.9 SSW 7 11 4 6 1014.2 1014.3 2.4
24/04:00am 12.3 11.7 11.7 96 0.3 NW 6 9 3 5 1014.1 1014.2 2.4
24/03:30am 12.4 10.8 11.5 94 0.5 WNW 11 17 6 9 1014.1 1014.2 2.4
24/03:07am 12.3 10.8 12.0 98 0.2 NNW 11 15 6 8 1013.8 1013.9 2.4
24/03:04am 12.4 11.0 12.2 99 0.1 N 11 15 6 8 1013.8 1013.9 2.4
24/03:00am 12.6 11.3 12.6 100 0.0 N 11 15 6 8 1013.7 1013.8 2.4
24/02:39am 12.7 11.5 12.7 100 0.0 WNW 11 13 6 7 1014.3 1014.4 0.6
24/02:30am 12.6 11.7 12.6 100 0.0 NW 9 13 5 7 1014.0 1014.1 0.2
24/02:00am 12.6 11.7 12.6 100 0.0 N 9 13 5 7 1013.8 1013.9 0.2
24/01:41am 12.5 11.6 12.5 100 0.0 NNW 9 11 5 6 1014.2 1014.3 0.2
24/01:30am 12.3 11.2 12.1 99 0.1 N 9 11 5 6 1014.3 1014.4 0.2
24/01:00am 12.4 11.7 12.1 98 0.2 N 7 11 4 6 1014.4 1014.5 0.2
24/12:30am 12.4 11.8 11.8 96 0.3 NE 6 9 3 5 1014.6 1014.7 0.2
24/12:00am 13.0 13.5 11.7 92 0.7 CALM 0 0 0 0 1014.8 1014.9 0.2
 
Date/Time
EST
Temp
°C
App
Temp
°C
Dew
Point
°C
Rel
Hum
%
Delta-T
°C
Wind Press
QNH
hPa
Press
MSL
hPa
Rain since
9am
mm
Dir  Spd
km/h
Gust
km/h
Spd
kts
Gust
kts
23/11:30pm 13.4 12.9 12.0 91 0.8 N 6 9 3 5 1015.2 1015.3 0.2
23/11:00pm 13.4 12.7 12.0 91 0.8 N 7 11 4 6 1015.3 1015.4 0.2
23/10:30pm 12.5 11.9 11.7 95 0.4 WNW 6 9 3 5 1015.7 1015.8 0.2
23/10:00pm 13.1 12.6 12.6 97 0.3 N 7 11 4 6 1015.7 1015.8 0.2
23/09:30pm 12.0 11.9 12.0 100 0.0 SSE 4 9 2 5 1015.9 1016.0 0.0
23/09:00pm 11.5 11.9 11.3 99 0.1 CALM 0 0 0 0 1016.0 1016.1 0.0
23/08:30pm 10.9 11.1 10.4 97 0.3 CALM 0 0 0 0 1016.0 1016.1 0.0
23/08:00pm 11.4 11.8 11.1 98 0.2 CALM 0 0 0 0 1016.0 1016.1 0.0
23/07:30pm 11.5 11.7 10.7 95 0.4 CALM 0 0 0 0 1016.0 1016.1 0.0
23/07:00pm 11.9 12.2 11.0 94 0.5 CALM 0 0 0 0 1015.9 1016.0 0.0
23/06:30pm 12.9 12.5 11.1 89 1.0 NNE 4 7 2 4 1015.8 1015.9 0.0
23/06:00pm 14.1 14.7 11.8 86 1.2 CALM 0 0 0 0 1015.7 1015.8 0.0
23/05:30pm 14.3 14.7 11.3 82 1.6 CALM 0 0 0 0 1015.9 1016.0 0.0
23/05:00pm 16.5 15.7 11.2 71 2.9 NE 6 7 3 4 1015.6 1015.7 0.0
23/04:30pm 17.1 16.0 11.8 71 2.9 NNE 9 13 5 7 1015.5 1015.6 0.0
23/04:00pm 18.2 15.8 11.3 64 3.8 N 15 20 8 11 1015.6 1015.7 0.0
23/03:30pm 18.7 16.2 11.0 61 4.2 N 15 20 8 11 1015.6 1015.7 0.0
23/03:01pm 18.4 15.5 11.0 62 4.0 N 17 22 9 12 1015.7 1015.8 0.0
23/03:00pm 18.5 15.6 11.1 62 4.0 N 17 22 9 12 1015.7 1015.8 0.0
23/02:30pm 18.4 16.2 12.2 67 3.5 NNE 15 19 8 10 1015.8 1015.9 0.0
23/02:17pm 17.3 14.4 10.9 66 3.5 NNE 17 20 9 11 1016.1 1016.2 0.0
23/02:00pm 17.9 15.0 11.0 64 3.8 NNE 17 20 9 11 1016.5 1016.6 0.0
23/01:30pm 18.0 14.6 10.4 61 4.1 NNE 19 22 10 12 1016.7 1016.8 0.0
23/01:00pm 17.4 13.6 11.0 66 3.5 NNE 22 28 12 15 1017.3 1017.5 0.0
23/12:30pm 17.1 14.8 11.8 71 2.9 N 15 20 8 11 1017.9 1018.1 0.0
23/12:00pm 15.5 14.5 10.9 74 2.5 NNW 7 9 4 5 1018.7 1018.8 0.0
23/11:30am 15.0 13.8 10.4 74 2.4 NNE 7 9 4 5 1019.2 1019.3 0.0

Other Formats:

Comma delimited format used in spreadsheet applications
http://www.bom.gov.au/fwo/IDV60801/IDV60801.94889.axf

JavaScript Object Notation format (JSON) in row-major order
http://www.bom.gov.au/fwo/IDV60801/IDV60801.94889.json